createdAt,value
2022-11-04T00:00:18.744Z,2.57
2022-11-04T00:02:47.707Z,2.23
2022-11-04T00:05:17.997Z,2.50
2022-11-04T00:08:04.680Z,1.97
2022-11-04T00:10:47.580Z,2.30
2022-11-04T00:13:16.520Z,2.10
2022-11-04T00:16:03.159Z,2.63
2022-11-04T00:18:32.069Z,2.50
2022-11-04T00:21:19.757Z,2.07
2022-11-04T00:24:06.510Z,2.27
2022-11-04T00:26:52.815Z,2.00
2022-11-04T00:29:21.750Z,2.20
2022-11-04T00:32:08.159Z,1.93
2022-11-04T00:34:37.091Z,2.50
2022-11-04T00:37:07.436Z,2.23
2022-11-04T00:39:36.333Z,2.37
2022-11-04T00:42:05.622Z,2.23
2022-11-04T00:44:34.564Z,2.63
2022-11-04T00:47:03.439Z,2.57
2022-11-04T00:49:32.510Z,2.47
2022-11-04T00:52:01.446Z,2.23
2022-11-04T00:54:31.725Z,2.33
2022-11-04T00:57:00.604Z,2.63
2022-11-04T00:59:29.514Z,2.60
2022-11-04T01:01:58.697Z,2.23
2022-11-04T01:04:27.800Z,2.47
2022-11-04T01:06:56.848Z,2.70
2022-11-04T01:09:25.887Z,3.13
2022-11-04T01:11:56.244Z,3.00
2022-11-04T01:14:25.189Z,2.60
2022-11-04T01:16:54.107Z,2.20
2022-11-04T01:19:23.351Z,2.23
2022-11-04T01:21:53.326Z,2.43
2022-11-04T01:24:22.258Z,2.80
2022-11-04T01:26:51.177Z,2.90
2022-11-04T01:29:21.432Z,2.23
2022-11-04T01:31:50.332Z,2.23
2022-11-04T01:34:19.299Z,2.60
2022-11-04T01:36:48.225Z,2.17
2022-11-04T01:39:17.123Z,2.90
2022-11-04T01:41:46.098Z,2.30
2022-11-04T01:44:52.086Z,2.70
2022-11-04T01:47:25.847Z,2.83
2022-11-04T01:49:58.819Z,2.37
2022-11-04T01:52:33.394Z,2.43
2022-11-04T01:55:06.412Z,2.80
2022-11-04T01:57:37.974Z,2.23
2022-11-04T02:00:10.506Z,2.30
2022-11-04T02:02:51.940Z,2.50
2022-11-04T02:05:21.625Z,2.60
2022-11-04T02:07:53.816Z,2.27
2022-11-04T02:10:26.067Z,2.37
2022-11-04T02:12:54.813Z,2.80
2022-11-04T02:15:36.112Z,2.40
2022-11-04T02:18:42.693Z,2.57
2022-11-04T02:21:31.155Z,2.67
2022-11-04T02:27:42.650Z,2.60
2022-11-04T02:30:15.286Z,2.70
2022-11-04T02:33:06.687Z,2.80
2022-11-04T02:35:44.776Z,2.70
2022-11-04T02:38:22.563Z,3.00
2022-11-04T02:41:02.081Z,3.00
2022-11-04T02:43:40.192Z,2.77
2022-11-04T02:46:19.259Z,2.33
2022-11-04T02:48:53.566Z,3.33
2022-11-04T02:51:28.549Z,2.70
2022-11-04T02:54:05.589Z,2.70
2022-11-04T02:56:38.472Z,2.90
2022-11-04T02:59:12.476Z,2.73
2022-11-04T03:01:46.371Z,3.17
2022-11-04T03:04:19.013Z,3.10
2022-11-04T03:06:51.939Z,2.63
2022-11-04T03:09:23.983Z,2.57
2022-11-04T03:11:58.983Z,2.83
2022-11-04T03:14:33.739Z,3.47
2022-11-04T03:17:07.437Z,2.90
2022-11-04T03:19:43.325Z,2.83
2022-11-04T03:22:14.356Z,2.63
2022-11-04T03:24:45.796Z,3.20
2022-11-04T03:27:21.952Z,3.40
2022-11-04T03:29:58.858Z,3.90
2022-11-04T03:32:40.141Z,3.00
2022-11-04T03:35:09.783Z,2.90
2022-11-04T03:37:39.023Z,3.57
2022-11-04T03:40:09.509Z,3.43
2022-11-04T03:42:49.841Z,3.07
2022-11-04T03:45:18.938Z,3.03
2022-11-04T03:47:49.890Z,3.27
2022-11-04T03:50:27.024Z,2.93
2022-11-04T03:52:56.637Z,3.63
2022-11-04T03:55:34.220Z,3.23
2022-11-04T03:58:08.847Z,3.00
2022-11-04T04:00:44.360Z,3.40
2022-11-04T04:03:19.548Z,3.90
2022-11-04T04:05:53.926Z,3.80
2022-11-04T04:08:32.951Z,3.50
2022-11-04T04:11:08.156Z,2.93
2022-11-04T04:13:45.130Z,3.23
2022-11-04T04:16:22.098Z,3.53
2022-11-04T04:18:59.069Z,3.77
2022-11-04T04:21:32.789Z,3.60
2022-11-04T04:24:23.256Z,3.70
2022-11-04T04:27:12.853Z,3.40
2022-11-04T04:29:44.317Z,3.90
2022-11-04T04:32:14.241Z,4.40
2022-11-04T04:34:45.316Z,3.67
2022-11-04T04:37:21.192Z,3.70
2022-11-04T04:40:11.402Z,3.63
2022-11-04T04:43:03.654Z,4.10
2022-11-04T04:45:35.800Z,3.43
2022-11-04T04:48:05.551Z,3.97
2022-11-04T04:50:38.839Z,3.47
2022-11-04T04:53:08.094Z,3.63
2022-11-04T04:55:40.730Z,3.87
2022-11-04T04:58:11.286Z,3.53
2022-11-04T05:00:40.223Z,3.47
2022-11-04T05:03:09.449Z,2.90
2022-11-04T05:05:39.854Z,3.17
2022-11-04T05:08:10.401Z,2.40
2022-11-04T05:10:39.609Z,2.63
2022-11-04T05:13:26.016Z,1.70
2022-11-04T05:15:55.089Z,1.90
2022-11-04T05:18:24.201Z,2.10
2022-11-04T05:20:54.500Z,1.93
2022-11-04T05:23:23.663Z,2.10
2022-11-04T05:25:52.593Z,2.43
2022-11-04T05:28:21.515Z,1.70
2022-11-04T05:30:50.425Z,1.83
2022-11-04T05:33:19.307Z,1.90
2022-11-04T05:35:48.254Z,1.80
2022-11-04T05:38:18.519Z,1.70
2022-11-04T05:40:47.481Z,1.93
2022-11-04T05:43:16.509Z,1.50
2022-11-04T05:45:46.384Z,1.57
2022-11-04T05:48:15.321Z,1.67
2022-11-04T05:50:44.603Z,1.70
2022-11-04T05:53:13.671Z,1.67
2022-11-04T05:55:43.998Z,1.60
2022-11-04T05:58:13.061Z,1.50
2022-11-04T06:00:43.031Z,1.40
2022-11-04T06:03:15.311Z,1.37
2022-11-04T06:05:45.384Z,1.73
2022-11-04T06:08:19.944Z,1.60
2022-11-04T06:10:50.244Z,1.50
2022-11-04T06:13:19.241Z,1.20
2022-11-04T06:15:48.372Z,1.67
2022-11-04T06:18:17.342Z,1.77
2022-11-04T06:20:46.287Z,1.80
2022-11-04T06:23:15.247Z,1.77
2022-11-04T06:25:44.206Z,1.70
2022-11-04T06:28:14.468Z,1.90
2022-11-04T06:30:43.410Z,1.53
2022-11-04T06:33:12.340Z,1.80
2022-11-04T06:35:41.258Z,2.13
2022-11-04T06:38:10.506Z,2.10
2022-11-04T06:40:39.648Z,1.87
2022-11-04T06:43:08.830Z,2.07
2022-11-04T06:45:39.299Z,2.53
2022-11-04T06:48:08.473Z,1.90
2022-11-04T06:50:37.413Z,2.23
2022-11-04T06:53:06.632Z,1.90
2022-11-04T06:55:35.977Z,2.17
2022-11-04T06:58:04.978Z,1.93
2022-11-04T07:00:33.876Z,2.20
2022-11-04T07:03:04.324Z,2.10
2022-11-04T07:05:34.486Z,2.27
2022-11-04T07:08:03.439Z,2.20
2022-11-04T07:10:32.630Z,2.37
2022-11-04T07:13:01.671Z,2.50
2022-11-04T07:15:32.772Z,2.50
2022-11-04T07:18:03.380Z,2.30
2022-11-04T07:20:32.296Z,2.43
2022-11-04T07:23:01.225Z,2.20
2022-11-04T07:25:30.247Z,2.10
2022-11-04T07:28:02.315Z,2.37
2022-11-04T07:30:32.307Z,2.90
2022-11-04T07:33:01.229Z,2.90
2022-11-04T07:35:31.539Z,3.20
2022-11-04T07:38:00.457Z,3.20
2022-11-04T07:40:29.463Z,2.60
2022-11-04T07:42:58.439Z,2.60
2022-11-04T07:45:37.719Z,3.33
2022-11-04T07:48:07.250Z,2.37
2022-11-04T07:50:41.114Z,2.97
2022-11-04T07:53:12.098Z,3.00
2022-11-04T07:55:43.517Z,3.13
2022-11-04T07:58:12.672Z,2.70
2022-11-04T08:00:41.672Z,3.23
2022-11-04T08:03:11.020Z,2.90
2022-11-04T08:05:41.700Z,2.90
2022-11-04T08:08:10.656Z,2.97
2022-11-04T08:10:40.028Z,3.20
2022-11-04T08:13:09.542Z,3.33
2022-11-04T08:15:38.823Z,3.17
2022-11-04T08:18:07.779Z,2.87
2022-11-04T08:20:38.265Z,3.23
2022-11-04T08:23:12.141Z,2.80
2022-11-04T08:25:41.756Z,3.33
2022-11-04T08:28:12.991Z,2.93
2022-11-04T08:30:41.943Z,2.97
2022-11-04T08:33:11.395Z,3.27
2022-11-04T08:35:42.747Z,3.33
2022-11-04T08:38:12.992Z,2.97
2022-11-04T08:40:41.919Z,3.67
2022-11-04T08:43:11.118Z,2.90
2022-11-04T08:45:42.111Z,2.87
2022-11-04T08:48:11.829Z,3.27
2022-11-04T08:50:41.269Z,2.90
2022-11-04T08:53:12.197Z,3.13
2022-11-04T08:55:41.222Z,3.17
2022-11-04T08:58:10.502Z,3.80
2022-11-04T09:00:40.071Z,3.27
2022-11-04T09:03:09.363Z,2.70
2022-11-04T09:05:44.630Z,3.33
2022-11-04T09:08:16.700Z,3.03
2022-11-04T09:10:47.126Z,3.37
2022-11-04T09:13:16.896Z,3.00
2022-11-04T09:15:48.839Z,3.63
2022-11-04T09:18:17.994Z,3.00
2022-11-04T09:20:47.059Z,3.10
2022-11-04T09:23:17.337Z,2.70
2022-11-04T09:25:46.263Z,2.43
2022-11-04T09:28:15.216Z,2.70
2022-11-04T09:30:44.152Z,2.90
2022-11-04T09:33:13.071Z,3.20
2022-11-04T09:35:42.029Z,2.50
2022-11-04T09:38:10.969Z,2.47
2022-11-04T09:40:41.346Z,2.37
2022-11-04T09:43:32.181Z,2.40
2022-11-04T09:46:02.360Z,2.30
2022-11-04T09:48:36.125Z,2.70
2022-11-04T09:51:12.870Z,2.20
2022-11-04T09:53:52.433Z,1.90
2022-11-04T09:56:26.159Z,1.90
2022-11-04T09:58:55.278Z,1.90
2022-11-04T10:01:33.056Z,2.00
2022-11-04T10:04:27.601Z,1.83
2022-11-04T10:07:09.933Z,1.50
2022-11-04T10:09:52.202Z,1.53
2022-11-04T10:12:47.301Z,1.37
2022-11-04T10:15:39.935Z,1.50
2022-11-04T10:18:23.836Z,1.30
2022-11-04T10:20:59.568Z,0.97
2022-11-04T10:23:35.603Z,1.20
2022-11-04T10:26:13.421Z,1.40
2022-11-04T10:28:48.511Z,1.00
2022-11-04T10:31:19.593Z,0.80
2022-11-04T10:33:53.041Z,0.80
2022-11-04T10:36:23.348Z,1.40
2022-11-04T10:38:54.753Z,1.30
2022-11-04T10:41:34.132Z,1.30
2022-11-04T10:44:07.296Z,1.17
2022-11-04T10:46:45.649Z,0.83
2022-11-04T10:50:26.384Z,0.77
2022-11-04T10:52:43.095Z,0.97
2022-11-04T10:55:23.099Z,0.83
2022-11-04T10:57:55.004Z,1.23
2022-11-04T11:00:41.069Z,0.70
2022-11-04T11:03:32.196Z,0.80
2022-11-04T11:06:23.835Z,0.73
2022-11-04T11:08:55.423Z,0.53
2022-11-04T11:11:41.955Z,0.50
2022-11-04T11:14:19.107Z,0.70
2022-11-04T11:16:49.441Z,0.60
2022-11-04T11:19:20.547Z,0.73
2022-11-04T11:21:51.508Z,0.47
2022-11-04T11:24:23.104Z,1.08
2022-11-04T11:26:54.031Z,0.50
2022-11-04T11:29:26.942Z,0.50
2022-11-04T11:32:00.619Z,0.50
2022-11-04T11:34:34.009Z,0.40
2022-11-04T11:37:05.153Z,0.50
2022-11-04T11:39:36.341Z,0.75
2022-11-04T11:42:09.249Z,0.60
2022-11-04T11:44:44.571Z,0.60
2022-11-04T11:47:22.024Z,0.70
2022-11-04T11:50:08.482Z,0.57
2022-11-04T11:52:38.283Z,0.50
2022-11-04T11:55:13.007Z,0.60
2022-11-04T12:00:49.163Z,0.50
2022-11-04T12:06:34.903Z,0.47
2022-11-04T12:09:18.280Z,0.40
2022-11-04T12:12:02.925Z,0.70
2022-11-04T12:14:49.207Z,0.50
2022-11-04T12:17:31.781Z,0.85
2022-11-04T12:20:15.103Z,0.52
2022-11-04T12:22:56.073Z,0.43
2022-11-04T12:25:32.730Z,0.40
2022-11-04T12:28:10.858Z,0.65
2022-11-04T12:30:52.381Z,0.50
2022-11-04T12:33:33.063Z,0.40
2022-11-04T12:36:21.742Z,0.68
2022-11-04T12:39:08.026Z,0.73
2022-11-04T12:42:14.853Z,0.55
2022-11-04T12:44:42.331Z,0.90
2022-11-04T12:47:30.083Z,0.73
2022-11-04T12:50:09.442Z,0.57
2022-11-04T12:53:11.005Z,0.43
2022-11-04T12:55:50.742Z,0.47
2022-11-04T12:58:33.700Z,0.67
2022-11-04T13:01:12.421Z,0.83
2022-11-04T13:03:49.587Z,0.80
2022-11-04T13:06:22.355Z,0.40
2022-11-04T13:08:57.991Z,0.50
2022-11-04T13:11:31.915Z,0.80
2022-11-04T13:14:06.487Z,0.60
2022-11-04T13:16:39.269Z,0.60
2022-11-04T13:19:15.725Z,0.70
2022-11-04T13:21:45.203Z,0.70
2022-11-04T13:24:24.012Z,0.80
2022-11-04T13:26:54.351Z,0.43
2022-11-04T13:29:25.752Z,0.60
2022-11-04T13:32:02.891Z,0.60
2022-11-04T13:34:40.027Z,0.60
2022-11-04T13:37:18.333Z,0.70
2022-11-04T13:39:54.606Z,0.70
2022-11-04T13:42:53.043Z,0.67
2022-11-04T13:45:22.181Z,0.53
2022-11-04T13:47:54.997Z,0.75
2022-11-04T13:50:35.383Z,0.50
2022-11-04T13:53:05.863Z,0.70
2022-11-04T13:55:36.914Z,0.63
2022-11-04T13:58:07.554Z,0.70
2022-11-04T14:00:39.766Z,0.67
2022-11-04T14:03:50.460Z,0.60
2022-11-04T14:06:39.434Z,0.67
2022-11-04T14:09:37.525Z,0.70
2022-11-04T14:12:27.913Z,0.60
2022-11-04T14:15:03.636Z,0.60
2022-11-04T14:18:06.846Z,0.70
2022-11-04T14:20:59.519Z,1.08
2022-11-04T14:23:28.963Z,0.63
2022-11-04T14:26:02.484Z,0.70
2022-11-04T14:28:34.652Z,0.50
2022-11-04T14:31:05.001Z,0.90
2022-11-04T14:33:42.673Z,0.67
2022-11-04T14:36:34.510Z,0.80
2022-11-04T14:39:21.306Z,0.50
2022-11-04T14:41:52.820Z,0.67
2022-11-04T14:44:37.480Z,0.60
2022-11-04T14:47:25.210Z,0.80
2022-11-04T14:50:02.559Z,0.80
2022-11-04T14:52:34.619Z,0.90
2022-11-04T14:55:07.157Z,0.67
2022-11-04T14:57:41.501Z,0.70
2022-11-04T15:00:29.526Z,0.93
2022-11-04T15:03:51.995Z,0.60
2022-11-04T15:06:09.593Z,0.50
2022-11-04T15:08:44.749Z,0.90
2022-11-04T15:11:17.485Z,0.80
2022-11-04T15:13:48.943Z,0.87
2022-11-04T15:16:23.072Z,0.60
2022-11-04T15:18:54.055Z,0.57
2022-11-04T15:21:23.447Z,0.47
2022-11-04T15:23:55.326Z,0.80
2022-11-04T15:26:30.212Z,0.60
2022-11-04T15:29:01.956Z,0.77
2022-11-04T15:31:34.172Z,0.80
2022-11-04T15:34:07.297Z,0.80
2022-11-04T15:36:42.582Z,0.97
2022-11-04T15:39:15.167Z,0.70
2022-11-04T15:42:03.652Z,1.00
2022-11-04T15:44:36.466Z,0.63
2022-11-04T15:47:24.038Z,0.93
2022-11-04T15:49:54.746Z,0.70
2022-11-04T15:52:26.549Z,0.83
2022-11-04T15:54:58.596Z,1.20
2022-11-04T15:57:31.765Z,0.87
2022-11-04T16:00:03.890Z,1.00
2022-11-04T16:02:51.068Z,0.97
2022-11-04T16:05:26.239Z,1.53
2022-11-04T16:07:58.372Z,1.00
2022-11-04T16:10:31.231Z,1.23
2022-11-04T16:13:03.200Z,1.43
2022-11-04T16:15:35.613Z,0.80
2022-11-04T16:18:08.453Z,0.90
2022-11-04T16:20:37.548Z,0.97
2022-11-04T16:23:06.664Z,1.17
2022-11-04T16:25:38.344Z,0.97
2022-11-04T16:28:08.737Z,1.33
2022-11-04T16:30:38.702Z,0.80
2022-11-04T16:33:19.358Z,0.97
2022-11-04T16:35:49.443Z,1.30
2022-11-04T16:38:19.068Z,1.40
2022-11-04T16:40:50.841Z,1.40
2022-11-04T16:43:22.372Z,1.33
2022-11-04T16:45:54.003Z,2.17
2022-11-04T16:48:27.721Z,1.93
2022-11-04T16:50:58.098Z,1.87
2022-11-04T16:53:28.101Z,2.10
2022-11-04T16:56:00.044Z,1.70
2022-11-04T16:58:30.528Z,1.87
2022-11-04T17:01:05.233Z,2.03
2022-11-04T17:03:36.093Z,1.73
2022-11-04T17:06:06.196Z,1.70
2022-11-04T17:08:35.765Z,1.70
2022-11-04T17:11:06.024Z,1.43
2022-11-04T17:13:36.669Z,1.87
2022-11-04T17:16:08.303Z,1.67
2022-11-04T17:18:40.070Z,1.67
2022-11-04T17:21:12.928Z,1.93
2022-11-04T17:23:43.266Z,2.23
2022-11-04T17:26:14.992Z,2.93
2022-11-04T17:28:45.248Z,3.20
2022-11-04T17:31:19.965Z,2.40
2022-11-04T17:33:51.295Z,2.47
2022-11-04T17:36:22.197Z,2.47
2022-11-04T17:38:52.085Z,2.40
2022-11-04T17:41:39.449Z,2.40
2022-11-04T17:44:08.580Z,2.17
2022-11-04T17:46:41.676Z,1.67
2022-11-04T17:49:14.317Z,2.13
2022-11-04T17:51:45.096Z,2.23
2022-11-04T17:54:14.284Z,2.33
2022-11-04T17:56:43.828Z,1.77
2022-11-04T17:59:15.124Z,1.70
2022-11-04T18:01:45.293Z,2.03
2022-11-04T18:04:17.756Z,2.23
2022-11-04T18:06:46.832Z,2.17
2022-11-04T18:09:16.857Z,2.53
2022-11-04T18:12:04.685Z,2.33
2022-11-04T18:14:33.730Z,2.07
2022-11-04T18:17:04.616Z,2.83
2022-11-04T18:19:34.940Z,3.10
2022-11-04T18:22:04.059Z,3.43
2022-11-04T18:24:33.356Z,2.80
2022-11-04T18:27:02.408Z,3.23
2022-11-04T18:29:31.684Z,4.00
2022-11-04T18:32:01.285Z,3.27
2022-11-04T18:34:30.516Z,3.80
2022-11-04T18:37:01.117Z,3.70
2022-11-04T18:39:30.556Z,3.37
2022-11-04T18:41:59.884Z,3.20
2022-11-04T18:44:30.577Z,3.37
2022-11-04T18:46:59.786Z,2.93
2022-11-04T18:49:29.667Z,3.60
2022-11-04T18:52:00.643Z,2.93
2022-11-04T18:54:30.655Z,2.80
2022-11-04T18:56:59.852Z,3.40
2022-11-04T18:59:29.062Z,3.70
2022-11-04T19:01:59.604Z,4.43
2022-11-04T19:04:32.020Z,4.60
2022-11-04T19:07:04.275Z,5.03
2022-11-04T19:09:46.760Z,5.83
2022-11-04T19:12:34.578Z,5.80
2022-11-04T19:15:07.649Z,5.53
2022-11-04T19:17:37.655Z,4.70
2022-11-04T19:20:12.196Z,3.73
2022-11-04T19:22:43.719Z,3.80
2022-11-04T19:25:12.911Z,3.90
2022-11-04T19:27:44.551Z,3.60
2022-11-04T19:30:14.551Z,3.20
2022-11-04T19:32:43.514Z,2.70
2022-11-04T19:35:15.404Z,2.77
2022-11-04T19:37:45.731Z,2.77
2022-11-04T19:40:14.699Z,2.90
2022-11-04T19:43:00.962Z,2.57
2022-11-04T19:45:29.887Z,2.87
2022-11-04T19:47:58.896Z,2.87
2022-11-04T19:50:27.844Z,2.90
2022-11-04T19:52:58.160Z,2.70
2022-11-04T19:55:27.597Z,2.73
2022-11-04T19:57:56.781Z,3.20
2022-11-04T20:00:26.100Z,4.33
2022-11-04T20:02:55.777Z,3.47
2022-11-04T20:05:24.903Z,3.30
2022-11-04T20:07:54.902Z,3.00
2022-11-04T20:10:25.629Z,3.13
2022-11-04T20:13:12.263Z,3.03
2022-11-04T20:15:41.201Z,2.50
2022-11-04T20:18:10.512Z,3.00
2022-11-04T20:20:39.997Z,3.83
2022-11-04T20:23:09.161Z,3.20
2022-11-04T20:25:39.559Z,2.93
2022-11-04T20:28:08.817Z,2.70
2022-11-04T20:30:39.415Z,3.87
2022-11-04T20:33:08.312Z,2.50
2022-11-04T20:35:37.610Z,2.43
2022-11-04T20:38:07.175Z,2.83
2022-11-04T20:40:36.456Z,3.50
2022-11-04T20:43:06.844Z,2.83
2022-11-04T20:45:35.776Z,2.90
2022-11-04T20:48:04.805Z,2.60
2022-11-04T20:50:33.731Z,2.87
2022-11-04T20:53:02.828Z,2.87
2022-11-04T20:55:31.825Z,2.70
2022-11-04T20:58:00.853Z,4.17
2022-11-04T21:00:31.289Z,4.17
2022-11-04T21:03:00.460Z,3.90
2022-11-04T21:05:29.365Z,4.13
2022-11-04T21:07:58.401Z,3.83
2022-11-04T21:10:27.842Z,3.77
2022-11-04T21:12:56.923Z,3.27
2022-11-04T21:15:43.509Z,3.30
2022-11-04T21:18:14.580Z,2.90
2022-11-04T21:20:44.767Z,2.40
2022-11-04T21:23:15.164Z,2.93
2022-11-04T21:25:45.958Z,2.70
2022-11-04T21:28:15.863Z,2.97
2022-11-04T21:30:48.249Z,2.43
2022-11-04T21:33:18.936Z,3.10
2022-11-04T21:35:48.816Z,3.10
2022-11-04T21:38:19.112Z,2.27
2022-11-04T21:40:48.237Z,2.83
2022-11-04T21:43:17.202Z,2.90
2022-11-04T21:45:46.152Z,2.77
2022-11-04T21:48:15.097Z,3.43
2022-11-04T21:50:45.489Z,2.90
2022-11-04T21:53:14.440Z,2.73
2022-11-04T21:55:43.607Z,3.10
2022-11-04T21:58:12.901Z,3.37
2022-11-04T22:00:42.246Z,3.50
2022-11-04T22:03:12.180Z,2.67
2022-11-04T22:05:41.319Z,3.20
2022-11-04T22:08:18.108Z,2.50
2022-11-04T22:10:47.260Z,2.50
2022-11-04T22:13:16.551Z,2.77
2022-11-04T22:16:08.194Z,2.77
2022-11-04T22:18:37.178Z,3.13
2022-11-04T22:21:09.399Z,3.50
2022-11-04T22:23:39.827Z,3.57
2022-11-04T22:26:12.919Z,2.90
2022-11-04T22:28:42.103Z,2.80
2022-11-04T22:31:13.964Z,2.77
2022-11-04T22:33:42.983Z,2.80
2022-11-04T22:36:12.923Z,2.60
2022-11-04T22:38:44.187Z,3.63
2022-11-04T22:41:15.935Z,3.10
2022-11-04T22:43:46.217Z,3.17
2022-11-04T22:46:17.441Z,3.20
2022-11-04T22:48:49.418Z,3.07
2022-11-04T22:51:18.992Z,3.03
2022-11-04T22:53:56.774Z,3.43
2022-11-04T22:56:28.697Z,3.67
2022-11-04T22:58:57.667Z,3.37
2022-11-04T23:01:27.347Z,2.77
2022-11-04T23:03:56.985Z,3.17
2022-11-04T23:06:25.973Z,3.13
2022-11-04T23:09:00.090Z,3.43
2022-11-04T23:11:48.616Z,3.50
2022-11-04T23:14:36.950Z,3.03
2022-11-04T23:17:33.232Z,3.07
2022-11-04T23:20:02.623Z,2.87
2022-11-04T23:22:48.992Z,3.27
2022-11-04T23:25:19.791Z,3.47
2022-11-04T23:28:08.557Z,3.20
2022-11-04T23:30:40.268Z,3.63
2022-11-04T23:33:11.145Z,3.60
2022-11-04T23:36:00.497Z,3.33
2022-11-04T23:38:30.230Z,3.57
2022-11-04T23:41:20.250Z,3.00
2022-11-04T23:43:49.179Z,2.60
2022-11-04T23:46:42.230Z,3.17
2022-11-04T23:49:30.202Z,3.17
2022-11-04T23:52:25.363Z,2.80
2022-11-04T23:55:12.001Z,3.50
2022-11-04T23:58:00.087Z,3.27
